createdAt,value
2018-05-04T00:00:53.037Z,67.70
2018-05-04T00:03:22.110Z,72.70
2018-05-04T00:05:51.681Z,86.50
2018-05-04T00:08:20.795Z,98.60
2018-05-04T00:10:49.654Z,101.27
2018-05-04T00:13:18.461Z,99.50
2018-05-04T00:15:47.242Z,85.10
2018-05-04T00:18:16.283Z,76.37
2018-05-04T00:20:46.118Z,68.33
2018-05-04T00:23:14.991Z,63.37
2018-05-04T00:25:43.831Z,63.63
2018-05-04T00:28:12.854Z,64.80
2018-05-04T00:30:41.853Z,64.33
2018-05-04T00:33:11.473Z,68.50
2018-05-04T00:35:40.320Z,67.80
2018-05-04T00:38:09.152Z,64.90
2018-05-04T00:40:38.807Z,68.27
2018-05-04T00:43:07.829Z,66.40
2018-05-04T00:45:36.745Z,66.57
2018-05-04T00:48:06.329Z,67.63
2018-05-04T00:50:35.244Z,68.10
2018-05-04T00:53:04.902Z,70.07
2018-05-04T00:55:34.108Z,68.40
2018-05-04T00:58:03.075Z,70.23
2018-05-04T01:00:31.793Z,74.70
2018-05-04T01:03:00.760Z,74.77
2018-05-04T01:05:29.521Z,75.43
2018-05-04T01:07:59.222Z,74.93
2018-05-04T01:10:29.139Z,78.00
2018-05-04T01:12:58.043Z,72.87
2018-05-04T01:15:27.642Z,70.17
2018-05-04T01:17:56.447Z,70.60
2018-05-04T01:20:25.222Z,68.40
2018-05-04T01:22:54.118Z,69.37
2018-05-04T01:25:22.960Z,70.13
2018-05-04T01:27:52.635Z,70.90
2018-05-04T01:30:21.469Z,70.93
2018-05-04T01:32:51.035Z,72.07
2018-05-04T01:35:19.806Z,75.27
2018-05-04T01:37:48.636Z,77.20
2018-05-04T01:40:17.400Z,75.37
2018-05-04T01:42:46.320Z,73.63
2018-05-04T01:45:15.312Z,70.70
2018-05-04T01:47:44.076Z,71.03
2018-05-04T01:50:12.904Z,71.73
2018-05-04T01:52:41.686Z,72.50
2018-05-04T01:55:10.694Z,73.27
2018-05-04T01:57:39.468Z,69.33
2018-05-04T02:00:08.526Z,71.63
2018-05-04T02:02:37.292Z,71.57
2018-05-04T02:05:06.172Z,69.13
2018-05-04T02:07:35.762Z,69.23
2018-05-04T02:10:04.868Z,70.53
2018-05-04T02:12:34.032Z,87.20
2018-05-04T02:15:02.831Z,80.20
2018-05-04T02:17:31.696Z,81.13
2018-05-04T02:20:00.538Z,78.57
2018-05-04T02:22:29.337Z,77.07
2018-05-04T02:24:58.242Z,76.67
2018-05-04T02:27:27.047Z,80.13
2018-05-04T02:29:56.880Z,79.80
2018-05-04T02:32:25.801Z,82.47
2018-05-04T02:34:54.722Z,80.23
2018-05-04T02:37:23.741Z,83.37
2018-05-04T02:39:52.674Z,81.33
2018-05-04T02:42:21.769Z,79.77
2018-05-04T02:44:50.474Z,79.10
2018-05-04T02:47:19.336Z,77.23
2018-05-04T02:49:48.882Z,79.50
2018-05-04T02:52:17.773Z,75.23
2018-05-04T02:54:46.513Z,75.47
2018-05-04T02:57:15.805Z,78.77
2018-05-04T02:59:44.561Z,80.50
2018-05-04T03:02:13.335Z,77.17
2018-05-04T03:04:42.281Z,74.30
2018-05-04T03:07:11.010Z,75.17
2018-05-04T03:09:40.638Z,76.97
2018-05-04T03:12:10.546Z,79.63
2018-05-04T03:14:40.228Z,77.10
2018-05-04T03:17:08.988Z,76.97
2018-05-04T03:19:37.877Z,76.50
2018-05-04T03:22:07.473Z,76.10
2018-05-04T03:24:36.336Z,75.20
2018-05-04T03:27:05.262Z,77.57
2018-05-04T03:29:34.073Z,78.47
2018-05-04T03:32:02.834Z,79.50
2018-05-04T03:34:32.090Z,81.33
2018-05-04T03:37:00.889Z,81.10
2018-05-04T03:39:29.782Z,78.80
2018-05-04T03:41:58.828Z,82.07
2018-05-04T03:44:28.709Z,82.27
2018-05-04T03:46:57.540Z,80.90
2018-05-04T03:49:26.460Z,78.23
2018-05-04T03:51:55.215Z,77.80
2018-05-04T03:54:24.758Z,78.57
2018-05-04T03:57:06.311Z,79.80
2018-05-04T03:59:47.118Z,76.53
2018-05-04T04:02:27.926Z,78.67
2018-05-04T04:04:57.640Z,76.07
2018-05-04T04:07:27.323Z,77.83
2018-05-04T04:09:56.116Z,78.07
2018-05-04T04:12:24.904Z,79.07
2018-05-04T04:14:53.777Z,76.40
2018-05-04T04:17:22.628Z,80.57
2018-05-04T04:19:52.174Z,84.33
2018-05-04T04:22:21.045Z,79.03
2018-05-04T04:24:49.892Z,75.77
2018-05-04T04:27:19.474Z,78.87
2018-05-04T04:29:48.371Z,76.10
2018-05-04T04:32:17.207Z,74.80
2018-05-04T04:34:46.743Z,76.77
2018-05-04T04:37:15.717Z,74.30
2018-05-04T04:39:45.335Z,72.50
2018-05-04T04:42:14.157Z,74.17
2018-05-04T04:44:43.283Z,72.37
2018-05-04T04:47:12.932Z,70.63
2018-05-04T04:49:42.072Z,72.07
2018-05-04T04:52:10.877Z,67.77
2018-05-04T04:54:40.568Z,69.00
2018-05-04T04:57:09.357Z,69.17
2018-05-04T04:59:38.098Z,71.10
2018-05-04T05:02:06.948Z,71.43
2018-05-04T05:04:36.519Z,75.73
2018-05-04T05:07:05.306Z,77.80
2018-05-04T05:09:34.088Z,79.00
2018-05-04T05:12:02.943Z,87.37
2018-05-04T05:14:31.886Z,86.70
2018-05-04T05:17:01.484Z,86.60
2018-05-04T05:19:31.118Z,95.00
2018-05-04T05:22:00.997Z,94.50
2018-05-04T05:24:30.029Z,86.40
2018-05-04T05:26:59.057Z,79.23
2018-05-04T05:29:28.645Z,85.70
2018-05-04T05:31:58.347Z,86.60
2018-05-04T05:34:27.302Z,98.40
2018-05-04T05:36:56.154Z,106.47
2018-05-04T05:39:24.984Z,122.67
2018-05-04T05:41:53.823Z,117.80
2018-05-04T05:44:23.403Z,125.63
2018-05-04T05:46:52.248Z,123.10
2018-05-04T05:49:21.096Z,109.10
2018-05-04T05:51:50.109Z,117.80
2018-05-04T05:54:19.025Z,110.77
2018-05-04T05:56:48.408Z,100.23
2018-05-04T05:59:18.027Z,100.23
2018-05-04T06:01:46.866Z,97.83
2018-05-04T06:04:16.495Z,97.27
2018-05-04T06:06:46.043Z,97.57
2018-05-04T06:09:14.949Z,90.97
2018-05-04T06:11:43.718Z,91.40
2018-05-04T06:14:12.632Z,85.90
2018-05-04T06:16:41.463Z,88.63
2018-05-04T06:19:11.045Z,86.70
2018-05-04T06:21:40.667Z,89.67
2018-05-04T06:24:09.529Z,88.33
2018-05-04T06:26:38.521Z,86.13
2018-05-04T06:29:07.302Z,86.43
2018-05-04T06:31:36.142Z,82.63
2018-05-04T06:34:05.173Z,77.17
2018-05-04T06:36:34.209Z,80.90
2018-05-04T06:39:04.191Z,76.30
2018-05-04T06:41:33.417Z,74.03
2018-05-04T06:44:03.536Z,74.60
2018-05-04T06:46:32.310Z,73.90
2018-05-04T06:49:01.118Z,70.33
2018-05-04T06:51:30.105Z,69.73
2018-05-04T06:53:59.719Z,71.73
2018-05-04T06:56:28.436Z,67.07
2018-05-04T06:58:57.572Z,67.67
2018-05-04T07:01:27.335Z,66.47
2018-05-04T07:03:56.987Z,65.63
2018-05-04T07:06:26.014Z,69.03
2018-05-04T07:08:54.834Z,70.47
2018-05-04T07:11:23.656Z,72.23
2018-05-04T07:13:52.466Z,73.40
2018-05-04T07:16:22.089Z,71.33
2018-05-04T07:18:51.065Z,73.50
2018-05-04T07:21:19.868Z,70.17
2018-05-04T07:23:48.688Z,71.67
2018-05-04T07:26:17.734Z,67.80
2018-05-04T07:28:46.524Z,67.57
2018-05-04T07:31:16.097Z,68.63
2018-05-04T07:33:44.855Z,64.87
2018-05-04T07:36:14.650Z,63.23
2018-05-04T07:38:44.464Z,69.10
2018-05-04T07:41:14.343Z,64.97
2018-05-04T07:43:43.267Z,63.67
2018-05-04T07:46:12.159Z,62.13
2018-05-04T07:48:41.328Z,61.73
2018-05-04T07:51:10.552Z,65.23
2018-05-04T07:53:39.649Z,65.40
2018-05-04T07:56:08.535Z,73.40
2018-05-04T07:58:37.386Z,82.63
2018-05-04T08:01:06.522Z,79.43
2018-05-04T08:03:35.516Z,77.67
2018-05-04T08:06:04.346Z,79.53
2018-05-04T08:08:33.833Z,76.90
2018-05-04T08:11:02.800Z,78.37
2018-05-04T08:13:33.237Z,76.13
2018-05-04T08:16:02.298Z,76.90
2018-05-04T08:18:31.506Z,70.30
2018-05-04T08:21:00.291Z,74.57
2018-05-04T08:23:29.071Z,73.40
2018-05-04T08:25:57.989Z,74.67
2018-05-04T08:28:27.731Z,78.40
2018-05-04T08:30:56.589Z,76.93
2018-05-04T08:33:25.708Z,76.33
2018-05-04T08:35:54.528Z,75.50
2018-05-04T08:38:23.633Z,76.27
2018-05-04T08:40:52.465Z,72.07
2018-05-04T08:43:21.212Z,75.13
2018-05-04T08:45:50.862Z,74.17
2018-05-04T08:48:19.705Z,73.63
2018-05-04T08:50:48.657Z,74.70
2018-05-04T08:53:17.773Z,73.87
2018-05-04T08:55:46.676Z,73.07
2018-05-04T08:58:20.806Z,68.07
2018-05-04T09:00:50.719Z,68.53
2018-05-04T09:03:28.015Z,70.17
2018-05-04T09:05:59.783Z,67.83
2018-05-04T09:08:31.229Z,70.03
2018-05-04T09:11:00.961Z,69.67
2018-05-04T09:13:30.399Z,68.77
2018-05-04T09:15:59.410Z,70.03
2018-05-04T09:18:28.559Z,68.27
2018-05-04T09:20:59.252Z,65.50
2018-05-04T09:23:28.133Z,67.17
2018-05-04T09:25:56.948Z,65.17
2018-05-04T09:28:25.754Z,65.77
2018-05-04T09:30:54.536Z,61.93
2018-05-04T09:33:23.390Z,61.57
2018-05-04T09:35:52.185Z,62.10
2018-05-04T09:38:21.036Z,61.60
2018-05-04T09:40:50.753Z,60.67
2018-05-04T09:43:20.384Z,61.50
2018-05-04T09:45:49.264Z,58.17
2018-05-04T09:48:18.826Z,58.90
2018-05-04T09:50:47.804Z,59.47
2018-05-04T09:53:16.747Z,55.70
2018-05-04T09:55:46.635Z,54.53
2018-05-04T09:58:15.574Z,54.37
2018-05-04T10:00:44.265Z,53.80
2018-05-04T10:03:13.194Z,52.57
2018-05-04T10:05:42.022Z,50.53
2018-05-04T10:08:11.505Z,51.67
2018-05-04T10:10:41.114Z,49.33
2018-05-04T10:13:09.914Z,51.60
2018-05-04T10:15:39.447Z,48.50
2018-05-04T10:18:08.386Z,47.53
2018-05-04T10:20:37.479Z,45.93
2018-05-04T10:23:06.236Z,45.53
2018-05-04T10:25:35.059Z,45.67
2018-05-04T10:28:03.887Z,44.00
2018-05-04T10:30:33.403Z,42.77
2018-05-04T10:33:02.224Z,45.03
2018-05-04T10:35:31.118Z,43.80
2018-05-04T10:37:59.916Z,43.27
2018-05-04T10:40:29.175Z,42.43
2018-05-04T10:42:57.938Z,44.57
2018-05-04T10:45:27.561Z,43.30
2018-05-04T10:47:56.453Z,43.27
2018-05-04T10:50:26.046Z,43.00
2018-05-04T10:52:55.621Z,42.70
2018-05-04T10:55:26.094Z,42.47
2018-05-04T10:57:54.998Z,40.97
2018-05-04T11:00:23.929Z,40.57
2018-05-04T11:02:52.738Z,43.50
2018-05-04T11:05:21.629Z,39.93
2018-05-04T11:07:50.676Z,41.03
2018-05-04T11:10:19.649Z,41.57
2018-05-04T11:12:49.255Z,40.10
2018-05-04T11:15:18.249Z,39.57
2018-05-04T11:17:47.035Z,40.87
2018-05-04T11:20:15.856Z,43.30
2018-05-04T11:22:44.568Z,40.90
2018-05-04T11:25:13.395Z,43.10
2018-05-04T11:27:42.301Z,42.70
2018-05-04T11:30:11.087Z,39.83
2018-05-04T11:32:39.871Z,41.00
2018-05-04T11:35:09.523Z,41.77
2018-05-04T11:37:38.376Z,40.20
2018-05-04T11:40:07.212Z,39.57
2018-05-04T11:42:36.846Z,37.63
2018-05-04T11:45:06.829Z,45.50
2018-05-04T11:47:35.594Z,40.37
2018-05-04T11:50:04.606Z,39.73
2018-05-04T11:52:33.355Z,37.20
2018-05-04T11:55:02.961Z,37.70
2018-05-04T11:57:32.052Z,47.43
2018-05-04T12:00:00.989Z,38.93
2018-05-04T12:02:29.950Z,42.77
2018-05-04T12:04:59.042Z,41.97
2018-05-04T12:07:27.951Z,45.53
2018-05-04T12:09:57.021Z,43.53
2018-05-04T12:12:25.909Z,43.97
2018-05-04T12:14:54.993Z,43.23
2018-05-04T12:17:24.807Z,40.23
2018-05-04T12:19:54.342Z,39.07
2018-05-04T12:22:23.066Z,33.37
2018-05-04T12:24:52.695Z,29.63
2018-05-04T12:27:22.250Z,29.30
2018-05-04T12:29:51.326Z,27.97
2018-05-04T12:32:21.037Z,23.87
2018-05-04T12:34:50.867Z,24.50
2018-05-04T12:37:19.728Z,24.90
2018-05-04T12:39:49.297Z,24.73
2018-05-04T12:42:18.296Z,24.90
2018-05-04T12:44:47.350Z,25.50
2018-05-04T12:47:16.128Z,25.40
2018-05-04T12:49:44.996Z,26.10
2018-05-04T12:52:14.496Z,24.73
2018-05-04T12:54:43.333Z,24.77
2018-05-04T12:57:12.098Z,24.43
2018-05-04T12:59:41.098Z,25.20
2018-05-04T13:02:10.358Z,24.57
2018-05-04T13:04:39.884Z,25.73
2018-05-04T13:07:10.410Z,24.53
2018-05-04T13:09:39.350Z,24.43
2018-05-04T13:12:08.159Z,25.20
2018-05-04T13:14:37.245Z,26.67
2018-05-04T13:17:06.059Z,34.87
2018-05-04T13:19:35.698Z,29.87
2018-05-04T13:22:04.791Z,28.67
2018-05-04T13:24:34.449Z,27.90
2018-05-04T13:27:03.760Z,32.80
2018-05-04T13:29:32.867Z,32.67
2018-05-04T13:32:02.424Z,28.63
2018-05-04T13:34:31.267Z,26.93
2018-05-04T13:37:01.161Z,28.33
2018-05-04T13:39:30.347Z,29.40
2018-05-04T13:41:59.294Z,30.97
2018-05-04T13:44:28.123Z,29.40
2018-05-04T13:46:57.087Z,28.77
2018-05-04T13:49:25.851Z,27.23
2018-05-04T13:51:54.799Z,29.27
2018-05-04T13:54:23.589Z,31.20
2018-05-04T13:56:52.387Z,29.40
2018-05-04T13:59:21.088Z,28.17
2018-05-04T14:01:50.239Z,29.60
2018-05-04T14:04:19.150Z,30.23
2018-05-04T14:06:48.020Z,31.10
2018-05-04T14:09:18.419Z,28.37
2018-05-04T14:11:47.335Z,30.03
2018-05-04T14:14:16.322Z,33.50
2018-05-04T14:16:46.178Z,30.13
2018-05-04T14:19:16.110Z,27.50
2018-05-04T14:21:44.946Z,26.63
2018-05-04T14:24:13.856Z,26.83
2018-05-04T14:26:43.175Z,25.93
2018-05-04T14:29:12.064Z,27.77
2018-05-04T14:31:40.901Z,26.40
2018-05-04T14:34:09.689Z,26.53
2018-05-04T14:36:38.604Z,27.93
2018-05-04T14:39:07.927Z,25.27
2018-05-04T14:41:37.626Z,26.27
2018-05-04T14:44:07.877Z,26.03
2018-05-04T14:46:36.618Z,24.13
2018-05-04T14:49:05.515Z,25.20
2018-05-04T14:51:34.339Z,26.43
2018-05-04T14:54:03.182Z,32.27
2018-05-04T14:56:32.149Z,31.43
2018-05-04T14:59:00.926Z,31.57
2018-05-04T15:01:30.468Z,25.30
2018-05-04T15:03:59.364Z,27.63
2018-05-04T15:06:28.239Z,30.77
2018-05-04T15:08:57.475Z,29.30
2018-05-04T15:11:27.051Z,28.80
2018-05-04T15:13:55.906Z,27.20
2018-05-04T15:16:24.938Z,25.80
2018-05-04T15:18:54.664Z,25.60
2018-05-04T15:21:23.466Z,26.70
2018-05-04T15:23:53.217Z,28.67
2018-05-04T15:26:23.295Z,27.47
2018-05-04T15:28:52.937Z,30.13
2018-05-04T15:31:22.014Z,28.73
2018-05-04T15:33:50.892Z,27.97
2018-05-04T15:36:19.817Z,26.27
2018-05-04T15:38:48.536Z,27.73
2018-05-04T15:41:17.311Z,27.07
2018-05-04T15:43:46.255Z,27.53
2018-05-04T15:46:16.570Z,26.07
2018-05-04T15:48:51.438Z,27.30
2018-05-04T15:51:25.942Z,25.17
2018-05-04T15:53:54.736Z,28.53
2018-05-04T15:56:23.580Z,28.00
2018-05-04T15:58:53.698Z,26.70
2018-05-04T16:01:23.210Z,27.30
2018-05-04T16:03:53.251Z,29.73
2018-05-04T16:06:22.132Z,28.93
2018-05-04T16:08:50.931Z,27.13
2018-05-04T16:11:20.025Z,27.23
2018-05-04T16:13:49.609Z,28.40
2018-05-04T16:16:18.456Z,29.43
2018-05-04T16:18:47.412Z,30.70
2018-05-04T16:21:16.184Z,29.93
2018-05-04T16:23:45.150Z,29.47
2018-05-04T16:26:13.897Z,30.33
2018-05-04T16:28:43.503Z,29.67
2018-05-04T16:31:12.389Z,28.77
2018-05-04T16:33:41.251Z,29.90
2018-05-04T16:36:10.060Z,30.57
2018-05-04T16:38:38.881Z,32.63
2018-05-04T16:41:08.456Z,32.83
2018-05-04T16:43:37.444Z,32.83
2018-05-04T16:46:06.538Z,31.70
2018-05-04T16:48:41.143Z,32.17
2018-05-04T16:51:10.976Z,34.03
2018-05-04T16:53:39.985Z,34.73
2018-05-04T16:56:09.750Z,33.97
2018-05-04T16:58:38.716Z,33.37
2018-05-04T17:01:08.246Z,32.30
2018-05-04T17:03:38.460Z,33.50
2018-05-04T17:06:07.437Z,31.87
2018-05-04T17:08:36.262Z,30.67
2018-05-04T17:11:06.020Z,30.17
2018-05-04T17:13:35.700Z,30.13
2018-05-04T17:16:04.719Z,30.67
2018-05-04T17:18:34.725Z,29.90
2018-05-04T17:21:04.371Z,31.53
2018-05-04T17:23:34.062Z,30.43
2018-05-04T17:26:03.146Z,31.00
2018-05-04T17:28:33.795Z,32.23
2018-05-04T17:31:03.694Z,35.17
2018-05-04T17:33:33.245Z,31.47
2018-05-04T17:36:02.278Z,29.27
2018-05-04T17:38:32.477Z,30.73
2018-05-04T17:41:01.315Z,30.20
2018-05-04T17:43:30.989Z,28.80
2018-05-04T17:46:00.969Z,27.80
2018-05-04T17:48:29.987Z,28.00
2018-05-04T17:50:58.962Z,27.53
2018-05-04T17:53:28.004Z,26.73
2018-05-04T17:55:58.732Z,28.00
2018-05-04T17:58:27.912Z,28.03
2018-05-04T18:00:56.956Z,27.47
2018-05-04T18:03:26.534Z,27.90
2018-05-04T18:05:58.475Z,29.50
2018-05-04T18:08:27.734Z,27.63
2018-05-04T18:10:57.650Z,28.53
2018-05-04T18:13:27.814Z,29.60
2018-05-04T18:15:57.560Z,28.27
2018-05-04T18:18:27.026Z,29.67
2018-05-04T18:20:56.544Z,29.73
2018-05-04T18:23:26.195Z,30.47
2018-05-04T18:25:55.805Z,30.57
2018-05-04T18:28:25.337Z,32.27
2018-05-04T18:30:55.677Z,31.53
2018-05-04T18:33:26.402Z,33.43
2018-05-04T18:35:56.812Z,32.97
2018-05-04T18:38:26.568Z,31.47
2018-05-04T18:40:56.118Z,30.47
2018-05-04T18:43:26.586Z,32.00
2018-05-04T18:45:56.374Z,31.53
2018-05-04T18:48:26.554Z,32.73
2018-05-04T18:50:56.439Z,34.27
2018-05-04T18:53:26.077Z,34.33
2018-05-04T18:55:55.770Z,34.00
2018-05-04T18:58:25.414Z,33.97
2018-05-04T19:00:56.075Z,32.27
2018-05-04T19:03:25.772Z,32.77
2018-05-04T19:05:56.252Z,34.73
2018-05-04T19:08:26.113Z,34.37
2018-05-04T19:10:56.504Z,37.47
2018-05-04T19:13:26.173Z,36.03
2018-05-04T19:15:55.787Z,36.23
2018-05-04T19:18:25.604Z,37.70
2018-05-04T19:20:55.291Z,39.27
2018-05-04T19:23:25.601Z,38.93
2018-05-04T19:25:55.219Z,42.63
2018-05-04T19:28:24.874Z,41.80
2018-05-04T19:30:54.655Z,42.77
2018-05-04T19:33:25.060Z,43.63
2018-05-04T19:35:54.742Z,43.27
2018-05-04T19:38:24.400Z,44.33
2018-05-04T19:40:54.313Z,43.27
2018-05-04T19:43:24.710Z,45.27
2018-05-04T19:45:54.352Z,43.50
2018-05-04T19:48:23.949Z,43.90
2018-05-04T19:50:53.814Z,44.00
2018-05-04T19:53:23.356Z,43.67
2018-05-04T19:55:52.906Z,42.80
2018-05-04T19:58:23.473Z,42.63
2018-05-04T20:00:54.167Z,42.20
2018-05-04T20:03:26.345Z,43.80
2018-05-04T20:05:56.240Z,42.47
2018-05-04T20:08:25.847Z,43.63
2018-05-04T20:10:56.570Z,43.60
2018-05-04T20:13:26.449Z,44.50
2018-05-04T20:15:56.093Z,46.40
2018-05-04T20:18:25.672Z,46.73
2018-05-04T20:20:55.470Z,46.20
2018-05-04T20:23:28.841Z,47.23
2018-05-04T20:25:59.679Z,45.40
2018-05-04T20:28:29.370Z,45.40
2018-05-04T20:30:59.020Z,46.47
2018-05-04T20:33:28.709Z,46.87
2018-05-04T20:35:59.311Z,48.13
2018-05-04T20:38:29.069Z,49.17
2018-05-04T20:40:59.726Z,48.57
2018-05-04T20:43:30.175Z,51.30
2018-05-04T20:46:00.636Z,50.30
2018-05-04T20:48:31.055Z,51.67
2018-05-04T20:51:00.587Z,50.93
2018-05-04T20:53:31.726Z,50.97
2018-05-04T20:56:02.195Z,50.97
2018-05-04T20:58:31.846Z,53.20
2018-05-04T21:01:01.453Z,52.70
2018-05-04T21:03:31.300Z,52.87
2018-05-04T21:06:01.984Z,54.47
2018-05-04T21:08:31.835Z,52.97
2018-05-04T21:11:01.499Z,53.87
2018-05-04T21:13:31.117Z,54.77
2018-05-04T21:16:00.623Z,55.07
2018-05-04T21:18:30.269Z,56.00
2018-05-04T21:21:00.059Z,56.60
2018-05-04T21:23:29.790Z,59.87
2018-05-04T21:25:59.282Z,58.40
2018-05-04T21:28:28.583Z,55.90
2018-05-04T21:30:58.574Z,59.33
2018-05-04T21:33:27.523Z,56.20
2018-05-04T21:35:56.611Z,54.77
2018-05-04T21:38:25.464Z,56.73
2018-05-04T21:40:55.056Z,58.80
2018-05-04T21:43:23.786Z,58.83
2018-05-04T21:45:52.835Z,58.97
2018-05-04T21:48:22.395Z,61.23
2018-05-04T21:50:51.198Z,59.47
2018-05-04T21:53:20.204Z,62.80
2018-05-04T21:55:49.091Z,60.83
2018-05-04T21:58:17.908Z,61.07
2018-05-04T22:00:47.560Z,60.93
2018-05-04T22:03:16.484Z,63.23
2018-05-04T22:05:45.314Z,63.53
2018-05-04T22:08:15.289Z,63.67
2018-05-04T22:10:44.303Z,61.07
2018-05-04T22:13:14.150Z,60.20
2018-05-04T22:15:42.950Z,60.13
2018-05-04T22:18:13.468Z,59.73
2018-05-04T22:20:42.315Z,58.80
2018-05-04T22:23:11.101Z,61.57
2018-05-04T22:25:39.938Z,71.70
2018-05-04T22:28:08.759Z,72.30
2018-05-04T22:30:38.560Z,75.73
2018-05-04T22:33:07.370Z,73.67
2018-05-04T22:35:36.199Z,75.93
2018-05-04T22:38:04.987Z,78.90
2018-05-04T22:40:34.614Z,77.57
2018-05-04T22:43:03.829Z,77.53
2018-05-04T22:45:32.975Z,79.50
2018-05-04T22:48:02.909Z,78.67
2018-05-04T22:50:31.695Z,78.30
2018-05-04T22:53:00.436Z,74.47
2018-05-04T22:55:29.397Z,76.80
2018-05-04T22:57:58.295Z,73.40
2018-05-04T23:00:27.197Z,74.33
2018-05-04T23:02:56.063Z,73.07
2018-05-04T23:05:24.845Z,73.13
2018-05-04T23:07:54.423Z,73.57
2018-05-04T23:10:23.358Z,75.63
2018-05-04T23:12:52.190Z,76.83
2018-05-04T23:15:21.742Z,74.73
2018-05-04T23:17:51.618Z,73.27
2018-05-04T23:20:20.455Z,73.07
2018-05-04T23:22:49.434Z,74.17
2018-05-04T23:25:18.172Z,74.57
2018-05-04T23:27:46.993Z,76.87
2018-05-04T23:30:15.916Z,75.93
2018-05-04T23:32:45.603Z,76.67
2018-05-04T23:35:15.112Z,75.60
2018-05-04T23:37:48.967Z,72.83
2018-05-04T23:40:17.766Z,74.20
2018-05-04T23:42:46.570Z,66.37
2018-05-04T23:45:16.125Z,64.60
2018-05-04T23:47:44.922Z,64.80
2018-05-04T23:50:13.749Z,64.43
2018-05-04T23:52:42.485Z,63.20
2018-05-04T23:55:11.534Z,64.47
2018-05-04T23:57:41.222Z,64.20
